sensor_id;sensor_type;location;lat;lon;timestamp;pressure;altitude;pressure_sealevel;temperature;humidity
64872;BME280;51351;51.450;6.614;2023-11-19T00:02:10;100810.34;;;10.99;100.00
64872;BME280;51351;51.450;6.614;2023-11-19T00:04:38;100815.97;;;11.04;100.00
64872;BME280;51351;51.450;6.614;2023-11-19T00:07:07;100814.19;;;11.04;100.00
64872;BME280;51351;51.450;6.614;2023-11-19T00:09:36;100810.47;;;11.07;100.00
64872;BME280;51351;51.450;6.614;2023-11-19T00:12:04;100805.09;;;11.08;100.00
64872;BME280;51351;51.450;6.614;2023-11-19T00:14:30;100799.47;;;11.13;100.00
64872;BME280;51351;51.450;6.614;2023-11-19T00:16:56;100803.56;;;11.15;100.00
64872;BME280;51351;51.450;6.614;2023-11-19T00:19:23;100805.38;;;11.15;100.00
64872;BME280;51351;51.450;6.614;2023-11-19T00:21:53;100799.19;;;11.16;100.00
64872;BME280;51351;51.450;6.614;2023-11-19T00:24:19;100798.91;;;11.19;100.00
64872;BME280;51351;51.450;6.614;2023-11-19T00:26:46;100801.25;;;11.22;100.00
64872;BME280;51351;51.450;6.614;2023-11-19T00:29:13;100788.88;;;11.24;100.00
64872;BME280;51351;51.450;6.614;2023-11-19T00:31:41;100795.06;;;11.32;100.00
64872;BME280;51351;51.450;6.614;2023-11-19T00:34:07;100782.78;;;11.33;100.00
64872;BME280;51351;51.450;6.614;2023-11-19T00:36:33;100784.28;;;11.35;100.00
64872;BME280;51351;51.450;6.614;2023-11-19T00:39:02;100774.09;;;11.42;100.00
64872;BME280;51351;51.450;6.614;2023-11-19T00:41:28;100779.34;;;11.42;100.00
64872;BME280;51351;51.450;6.614;2023-11-19T00:43:55;100762.66;;;11.43;100.00
64872;BME280;51351;51.450;6.614;2023-11-19T00:46:21;100765.84;;;11.46;100.00
64872;BME280;51351;51.450;6.614;2023-11-19T00:48:46;100770.38;;;11.44;100.00
64872;BME280;51351;51.450;6.614;2023-11-19T00:51:12;100755.66;;;11.43;100.00
64872;BME280;51351;51.450;6.614;2023-11-19T00:53:38;100763.63;;;11.42;100.00
64872;BME280;51351;51.450;6.614;2023-11-19T00:56:06;100753.72;;;11.45;100.00
64872;BME280;51351;51.450;6.614;2023-11-19T00:58:35;100748.31;;;11.47;100.00
64872;BME280;51351;51.450;6.614;2023-11-19T01:01:03;100744.91;;;11.46;100.00
64872;BME280;51351;51.450;6.614;2023-11-19T01:03:28;100743.28;;;11.45;100.00
64872;BME280;51351;51.450;6.614;2023-11-19T01:05:54;100746.53;;;11.47;100.00
64872;BME280;51351;51.450;6.614;2023-11-19T01:08:21;100753.41;;;11.48;100.00
64872;BME280;51351;51.450;6.614;2023-11-19T01:10:46;100751.06;;;11.55;100.00
64872;BME280;51351;51.450;6.614;2023-11-19T01:13:13;100750.09;;;11.56;100.00
64872;BME280;51351;51.450;6.614;2023-11-19T01:15:39;100761.91;;;11.60;100.00
64872;BME280;51351;51.450;6.614;2023-11-19T01:18:08;100755.75;;;11.61;100.00
64872;BME280;51351;51.450;6.614;2023-11-19T01:20:37;100753.97;;;11.61;100.00
64872;BME280;51351;51.450;6.614;2023-11-19T01:23:04;100741.97;;;11.59;100.00
64872;BME280;51351;51.450;6.614;2023-11-19T01:25:30;100750.66;;;11.59;100.00
64872;BME280;51351;51.450;6.614;2023-11-19T01:27:56;100759.31;;;11.60;100.00
64872;BME280;51351;51.450;6.614;2023-11-19T01:30:37;100778.19;;;11.63;100.00
64872;BME280;51351;51.450;6.614;2023-11-19T01:33:09;100770.50;;;11.62;100.00
64872;BME280;51351;51.450;6.614;2023-11-19T01:35:35;100769.38;;;11.64;100.00
64872;BME280;51351;51.450;6.614;2023-11-19T01:38:00;100763.06;;;11.67;100.00
64872;BME280;51351;51.450;6.614;2023-11-19T01:40:26;100760.72;;;11.64;100.00
64872;BME280;51351;51.450;6.614;2023-11-19T01:42:54;100750.41;;;11.62;99.79
64872;BME280;51351;51.450;6.614;2023-11-19T01:45:30;100754.78;;;11.62;99.83
64872;BME280;51351;51.450;6.614;2023-11-19T01:47:57;100749.56;;;11.62;100.00
64872;BME280;51351;51.450;6.614;2023-11-19T01:50:23;100759.88;;;11.63;99.82
64872;BME280;51351;51.450;6.614;2023-11-19T01:52:53;100759.88;;;11.63;100.00
64872;BME280;51351;51.450;6.614;2023-11-19T01:55:20;100757.81;;;11.67;99.98
64872;BME280;51351;51.450;6.614;2023-11-19T01:57:48;100753.25;;;11.69;99.92
64872;BME280;51351;51.450;6.614;2023-11-19T02:00:16;100736.44;;;11.71;100.00
64872;BME280;51351;51.450;6.614;2023-11-19T02:02:43;100723.34;;;11.71;100.00
64872;BME280;51351;51.450;6.614;2023-11-19T02:05:13;100726.81;;;11.72;99.92
64872;BME280;51351;51.450;6.614;2023-11-19T02:07:39;100720.72;;;11.71;99.73
64872;BME280;51351;51.450;6.614;2023-11-19T02:10:06;100703.53;;;11.69;99.80
64872;BME280;51351;51.450;6.614;2023-11-19T02:12:42;100705.31;;;11.68;99.60
64872;BME280;51351;51.450;6.614;2023-11-19T02:15:11;100705.50;;;11.67;99.70
64872;BME280;51351;51.450;6.614;2023-11-19T02:17:38;100699.56;;;11.65;99.58
64872;BME280;51351;51.450;6.614;2023-11-19T02:20:07;100692.09;;;11.70;99.93
64872;BME280;51351;51.450;6.614;2023-11-19T02:22:35;100705.03;;;11.71;99.63
64872;BME280;51351;51.450;6.614;2023-11-19T02:25:08;100708.50;;;11.72;99.58
64872;BME280;51351;51.450;6.614;2023-11-19T02:27:58;100696.09;;;11.74;99.33
64872;BME280;51351;51.450;6.614;2023-11-19T02:30:25;100694.28;;;11.74;99.27
64872;BME280;51351;51.450;6.614;2023-11-19T02:33:01;100698.56;;;11.75;99.23
64872;BME280;51351;51.450;6.614;2023-11-19T02:35:31;100692.50;;;11.75;99.31
64872;BME280;51351;51.450;6.614;2023-11-19T02:37:58;100698.28;;;11.78;99.11
64872;BME280;51351;51.450;6.614;2023-11-19T02:40:26;100685.72;;;11.82;99.21
64872;BME280;51351;51.450;6.614;2023-11-19T02:42:53;100689.81;;;11.84;99.29
64872;BME280;51351;51.450;6.614;2023-11-19T02:45:22;100686.25;;;11.85;99.27
64872;BME280;51351;51.450;6.614;2023-11-19T02:47:48;100687.75;;;11.88;98.93
64872;BME280;51351;51.450;6.614;2023-11-19T02:50:14;100684.28;;;11.87;99.23
64872;BME280;51351;51.450;6.614;2023-11-19T02:52:44;100688.41;;;11.90;99.18
64872;BME280;51351;51.450;6.614;2023-11-19T02:55:11;100684.41;;;11.95;99.02
64872;BME280;51351;51.450;6.614;2023-11-19T02:57:41;100682.88;;;11.93;98.99
64872;BME280;51351;51.450;6.614;2023-11-19T03:00:21;100677.50;;;11.94;99.04
64872;BME280;51351;51.450;6.614;2023-11-19T03:02:57;100681.94;;;11.94;99.13
64872;BME280;51351;51.450;6.614;2023-11-19T03:05:31;100688.66;;;11.96;98.94
64872;BME280;51351;51.450;6.614;2023-11-19T03:07:56;100692.25;;;11.95;99.00
64872;BME280;51351;51.450;6.614;2023-11-19T03:10:24;100675.72;;;11.95;98.80
64872;BME280;51351;51.450;6.614;2023-11-19T03:12:51;100689.09;;;11.92;98.72
64872;BME280;51351;51.450;6.614;2023-11-19T03:15:17;100672.56;;;11.91;98.84
64872;BME280;51351;51.450;6.614;2023-11-19T03:17:46;100684.44;;;11.86;98.48
64872;BME280;51351;51.450;6.614;2023-11-19T03:20:12;100683.09;;;11.82;97.89
64872;BME280;51351;51.450;6.614;2023-11-19T03:22:43;100681.88;;;11.76;97.51
64872;BME280;51351;51.450;6.614;2023-11-19T03:25:13;100694.28;;;11.74;96.98
64872;BME280;51351;51.450;6.614;2023-11-19T03:27:40;100687.25;;;11.75;96.68
64872;BME280;51351;51.450;6.614;2023-11-19T03:30:08;100675.72;;;11.68;96.58
64872;BME280;51351;51.450;6.614;2023-11-19T03:32:36;100681.41;;;11.63;96.28
64872;BME280;51351;51.450;6.614;2023-11-19T03:35:03;100688.97;;;11.66;96.07
64872;BME280;51351;51.450;6.614;2023-11-19T03:37:38;100685.94;;;11.61;96.12
64872;BME280;51351;51.450;6.614;2023-11-19T03:40:05;100685.38;;;11.58;96.14
64872;BME280;51351;51.450;6.614;2023-11-19T03:42:31;100691.34;;;11.50;96.10
64872;BME280;51351;51.450;6.614;2023-11-19T03:44:59;100694.38;;;11.46;96.35
64872;BME280;51351;51.450;6.614;2023-11-19T03:47:25;100684.34;;;11.41;96.14
64872;BME280;51351;51.450;6.614;2023-11-19T03:49:51;100684.75;;;11.37;96.30
64872;BME280;51351;51.450;6.614;2023-11-19T03:52:18;100690.53;;;11.40;95.91
64872;BME280;51351;51.450;6.614;2023-11-19T03:54:55;100680.50;;;11.36;95.64
64872;BME280;51351;51.450;6.614;2023-11-19T03:57:23;100679.53;;;11.37;95.94
64872;BME280;51351;51.450;6.614;2023-11-19T03:59:50;100691.94;;;11.35;95.93
64872;BME280;51351;51.450;6.614;2023-11-19T04:02:21;100690.31;;;11.34;95.81
64872;BME280;51351;51.450;6.614;2023-11-19T04:04:47;100688.13;;;11.29;95.95
64872;BME280;51351;51.450;6.614;2023-11-19T04:07:13;100695.56;;;11.24;96.00
64872;BME280;51351;51.450;6.614;2023-11-19T04:09:40;100686.22;;;11.22;95.71
64872;BME280;51351;51.450;6.614;2023-11-19T04:12:06;100688.13;;;11.20;95.45
64872;BME280;51351;51.450;6.614;2023-11-19T04:14:32;100684.72;;;11.19;95.52
64872;BME280;51351;51.450;6.614;2023-11-19T04:16:58;100692.00;;;11.16;95.53
64872;BME280;51351;51.450;6.614;2023-11-19T04:19:25;100686.78;;;11.16;95.39
64872;BME280;51351;51.450;6.614;2023-11-19T04:21:51;100694.63;;;11.16;95.22
64872;BME280;51351;51.450;6.614;2023-11-19T04:24:18;100701.34;;;11.18;95.49
64872;BME280;51351;51.450;6.614;2023-11-19T04:26:44;100690.34;;;11.15;95.19
64872;BME280;51351;51.450;6.614;2023-11-19T04:29:14;100691.03;;;11.17;95.11
64872;BME280;51351;51.450;6.614;2023-11-19T04:31:42;100687.19;;;11.21;95.17
64872;BME280;51351;51.450;6.614;2023-11-19T04:34:08;100688.69;;;11.23;95.47
64872;BME280;51351;51.450;6.614;2023-11-19T04:36:36;100702.69;;;11.32;95.45
64872;BME280;51351;51.450;6.614;2023-11-19T04:39:04;100697.19;;;11.35;95.64
64872;BME280;51351;51.450;6.614;2023-11-19T04:41:48;100699.50;;;11.38;95.19
64872;BME280;51351;51.450;6.614;2023-11-19T04:44:19;100712.72;;;11.36;95.25
64872;BME280;51351;51.450;6.614;2023-11-19T04:46:46;100702.94;;;11.38;94.90
64872;BME280;51351;51.450;6.614;2023-11-19T04:49:14;100697.97;;;11.45;94.48
64872;BME280;51351;51.450;6.614;2023-11-19T04:51:44;100709.66;;;11.50;94.54
64872;BME280;51351;51.450;6.614;2023-11-19T04:54:19;100712.22;;;11.60;94.33
64872;BME280;51351;51.450;6.614;2023-11-19T04:56:46;100718.28;;;11.60;94.15
64872;BME280;51351;51.450;6.614;2023-11-19T04:59:16;100711.56;;;11.58;94.04
64872;BME280;51351;51.450;6.614;2023-11-19T05:01:45;100720.06;;;11.60;94.36
64872;BME280;51351;51.450;6.614;2023-11-19T05:04:12;100713.63;;;11.54;94.48
64872;BME280;51351;51.450;6.614;2023-11-19T05:06:38;100711.44;;;11.50;93.96
64872;BME280;51351;51.450;6.614;2023-11-19T05:09:03;100712.41;;;11.49;94.49
64872;BME280;51351;51.450;6.614;2023-11-19T05:11:34;100712.03;;;11.44;94.42
64872;BME280;51351;51.450;6.614;2023-11-19T05:14:03;100711.31;;;11.42;94.53
64872;BME280;51351;51.450;6.614;2023-11-19T05:16:29;100703.75;;;11.39;94.66
64872;BME280;51351;51.450;6.614;2023-11-19T05:18:55;100708.84;;;11.40;94.97
64872;BME280;51351;51.450;6.614;2023-11-19T05:21:21;100708.03;;;11.40;94.88
64872;BME280;51351;51.450;6.614;2023-11-19T05:23:51;100717.25;;;11.44;95.03
64872;BME280;51351;51.450;6.614;2023-11-19T05:26:19;100705.97;;;11.43;94.99
64872;BME280;51351;51.450;6.614;2023-11-19T05:28:45;100719.56;;;11.47;94.58
64872;BME280;51351;51.450;6.614;2023-11-19T05:31:13;100726.47;;;11.48;94.89
64872;BME280;51351;51.450;6.614;2023-11-19T05:33:40;100729.75;;;11.50;94.51
64872;BME280;51351;51.450;6.614;2023-11-19T05:36:13;100727.66;;;11.53;93.13
64872;BME280;51351;51.450;6.614;2023-11-19T05:38:39;100722.28;;;11.55;93.46
64872;BME280;51351;51.450;6.614;2023-11-19T05:41:05;100728.25;;;11.47;93.62
64872;BME280;51351;51.450;6.614;2023-11-19T05:43:33;100728.25;;;11.47;93.59
64872;BME280;51351;51.450;6.614;2023-11-19T05:46:00;100717.13;;;11.45;93.42
64872;BME280;51351;51.450;6.614;2023-11-19T05:48:28;100721.09;;;11.40;93.50
64872;BME280;51351;51.450;6.614;2023-11-19T05:50:54;100729.91;;;11.39;92.97
64872;BME280;51351;51.450;6.614;2023-11-19T05:53:22;100734.44;;;11.37;93.13
64872;BME280;51351;51.450;6.614;2023-11-19T05:55:51;100725.38;;;11.31;92.84
64872;BME280;51351;51.450;6.614;2023-11-19T05:58:29;100750.31;;;11.26;93.12
64872;BME280;51351;51.450;6.614;2023-11-19T06:01:00;100729.69;;;11.32;92.90
64872;BME280;51351;51.450;6.614;2023-11-19T06:03:31;100728.16;;;11.30;92.94
64872;BME280;51351;51.450;6.614;2023-11-19T06:05:57;100733.00;;;11.25;92.64
64872;BME280;51351;51.450;6.614;2023-11-19T06:08:23;100735.88;;;11.22;92.29
64872;BME280;51351;51.450;6.614;2023-11-19T06:10:58;100728.03;;;11.22;92.96
64872;BME280;51351;51.450;6.614;2023-11-19T06:13:24;100729.56;;;11.15;92.68
64872;BME280;51351;51.450;6.614;2023-11-19T06:15:55;100725.03;;;11.07;93.05
64872;BME280;51351;51.450;6.614;2023-11-19T06:18:41;100734.94;;;11.04;93.00
64872;BME280;51351;51.450;6.614;2023-11-19T06:21:09;100731.38;;;11.05;92.27
64872;BME280;51351;51.450;6.614;2023-11-19T06:23:42;100721.34;;;11.00;92.42
64872;BME280;51351;51.450;6.614;2023-11-19T06:26:07;100725.47;;;10.93;93.12
64872;BME280;51351;51.450;6.614;2023-11-19T06:28:36;100728.75;;;10.95;92.48
64872;BME280;51351;51.450;6.614;2023-11-19T06:31:03;100723.13;;;11.00;91.95
64872;BME280;51351;51.450;6.614;2023-11-19T06:33:29;100729.72;;;11.04;91.87
64872;BME280;51351;51.450;6.614;2023-11-19T06:35:55;100727.50;;;11.09;91.81
64872;BME280;51351;51.450;6.614;2023-11-19T06:38:20;100732.03;;;11.07;90.89
64872;BME280;51351;51.450;6.614;2023-11-19T06:40:47;100728.78;;;11.05;90.19
64872;BME280;51351;51.450;6.614;2023-11-19T06:43:18;100735.91;;;11.03;91.25
64872;BME280;51351;51.450;6.614;2023-11-19T06:45:53;100739.50;;;11.02;90.25
64872;BME280;51351;51.450;6.614;2023-11-19T06:48:38;100742.13;;;11.02;90.79
64872;BME280;51351;51.450;6.614;2023-11-19T06:51:08;100743.22;;;10.99;91.17
64872;BME280;51351;51.450;6.614;2023-11-19T06:54:01;100752.56;;;10.92;90.19
64872;BME280;51351;51.450;6.614;2023-11-19T06:56:27;100745.81;;;10.90;91.11
64872;BME280;51351;51.450;6.614;2023-11-19T06:59:21;100751.31;;;10.87;91.18
64872;BME280;51351;51.450;6.614;2023-11-19T07:01:49;100734.28;;;10.83;90.49
64872;BME280;51351;51.450;6.614;2023-11-19T07:04:15;100740.34;;;10.83;91.06
64872;BME280;51351;51.450;6.614;2023-11-19T07:06:41;100738.53;;;10.84;91.18
64872;BME280;51351;51.450;6.614;2023-11-19T07:09:07;100737.31;;;10.88;91.54
64872;BME280;51351;51.450;6.614;2023-11-19T07:11:39;100729.31;;;10.80;89.45
64872;BME280;51351;51.450;6.614;2023-11-19T07:14:08;100737.03;;;10.81;90.99
64872;BME280;51351;51.450;6.614;2023-11-19T07:16:35;100738.28;;;10.77;89.73
64872;BME280;51351;51.450;6.614;2023-11-19T07:19:03;100740.88;;;10.77;90.93
64872;BME280;51351;51.450;6.614;2023-11-19T07:21:30;100748.31;;;10.82;89.77
64872;BME280;51351;51.450;6.614;2023-11-19T07:23:56;100753.13;;;10.86;90.37
64872;BME280;51351;51.450;6.614;2023-11-19T07:26:24;100760.00;;;10.87;90.29
64872;BME280;51351;51.450;6.614;2023-11-19T07:28:50;100765.38;;;10.86;90.77
64872;BME280;51351;51.450;6.614;2023-11-19T07:31:16;100775.69;;;10.87;90.44
64872;BME280;51351;51.450;6.614;2023-11-19T07:33:45;100776.53;;;10.88;89.14
64872;BME280;51351;51.450;6.614;2023-11-19T07:36:12;100771.03;;;10.91;91.45
64872;BME280;51351;51.450;6.614;2023-11-19T07:38:43;100780.38;;;10.93;90.83
64872;BME280;51351;51.450;6.614;2023-11-19T07:41:08;100777.63;;;10.95;91.33
64872;BME280;51351;51.450;6.614;2023-11-19T07:43:49;100784.34;;;10.97;88.99
64872;BME280;51351;51.450;6.614;2023-11-19T07:46:27;100805.50;;;11.04;87.78
64872;BME280;51351;51.450;6.614;2023-11-19T07:48:53;100799.59;;;11.11;88.50
64872;BME280;51351;51.450;6.614;2023-11-19T07:51:18;100804.69;;;11.13;87.18
64872;BME280;51351;51.450;6.614;2023-11-19T07:53:45;100811.44;;;11.25;89.96
64872;BME280;51351;51.450;6.614;2023-11-19T07:56:11;100817.75;;;11.32;88.68
64872;BME280;51351;51.450;6.614;2023-11-19T07:58:55;100829.31;;;11.39;89.62
64872;BME280;51351;51.450;6.614;2023-11-19T08:01:27;100830.13;;;11.39;88.65
64872;BME280;51351;51.450;6.614;2023-11-19T08:03:55;100839.06;;;11.46;89.09
64872;BME280;51351;51.450;6.614;2023-11-19T08:06:24;100838.66;;;11.51;88.26
64872;BME280;51351;51.450;6.614;2023-11-19T08:08:56;100839.03;;;11.56;87.11
64872;BME280;51351;51.450;6.614;2023-11-19T08:11:22;100834.38;;;11.59;86.97
64872;BME280;51351;51.450;6.614;2023-11-19T08:13:47;100829.28;;;11.67;89.19
64872;BME280;51351;51.450;6.614;2023-11-19T08:16:13;100834.66;;;11.66;87.69
64872;BME280;51351;51.450;6.614;2023-11-19T08:18:41;100838.25;;;11.55;85.10
64872;BME280;51351;51.450;6.614;2023-11-19T08:21:06;100834.38;;;11.50;85.75
64872;BME280;51351;51.450;6.614;2023-11-19T08:23:32;100850.66;;;11.44;86.85
64872;BME280;51351;51.450;6.614;2023-11-19T08:25:57;100847.44;;;11.50;88.56
64872;BME280;51351;51.450;6.614;2023-11-19T08:28:23;100842.09;;;11.61;88.09
64872;BME280;51351;51.450;6.614;2023-11-19T08:30:48;100843.47;;;11.65;87.82
64872;BME280;51351;51.450;6.614;2023-11-19T08:33:14;100833.94;;;11.73;88.20
64872;BME280;51351;51.450;6.614;2023-11-19T08:35:40;100833.25;;;11.81;87.13
64872;BME280;51351;51.450;6.614;2023-11-19T08:38:06;100831.13;;;11.94;87.57
64872;BME280;51351;51.450;6.614;2023-11-19T08:40:32;100840.31;;;12.07;88.14
64872;BME280;51351;51.450;6.614;2023-11-19T08:42:57;100843.03;;;12.16;87.03
64872;BME280;51351;51.450;6.614;2023-11-19T08:45:23;100837.13;;;12.13;83.56
64872;BME280;51351;51.450;6.614;2023-11-19T08:47:48;100831.69;;;12.25;85.21
64872;BME280;51351;51.450;6.614;2023-11-19T08:50:14;100823.78;;;12.34;83.58
64872;BME280;51351;51.450;6.614;2023-11-19T08:52:39;100840.13;;;12.46;85.93
64872;BME280;51351;51.450;6.614;2023-11-19T08:55:05;100843.69;;;12.45;84.48
64872;BME280;51351;51.450;6.614;2023-11-19T08:57:31;100848.44;;;12.41;82.39
64872;BME280;51351;51.450;6.614;2023-11-19T08:59:58;100844.78;;;12.52;85.97
64872;BME280;51351;51.450;6.614;2023-11-19T09:02:23;100855.66;;;12.57;83.96
64872;BME280;51351;51.450;6.614;2023-11-19T09:04:49;100837.69;;;12.62;83.59
64872;BME280;51351;51.450;6.614;2023-11-19T09:07:14;100856.13;;;12.70;83.96
64872;BME280;51351;51.450;6.614;2023-11-19T09:09:40;100852.22;;;12.74;83.53
64872;BME280;51351;51.450;6.614;2023-11-19T09:12:06;100849.16;;;12.78;82.56
64872;BME280;51351;51.450;6.614;2023-11-19T09:14:31;100854.03;;;12.73;81.25
64872;BME280;51351;51.450;6.614;2023-11-19T09:16:57;100841.66;;;12.66;82.72
64872;BME280;51351;51.450;6.614;2023-11-19T09:19:24;100839.88;;;12.66;82.81
64872;BME280;51351;51.450;6.614;2023-11-19T09:21:49;100840.94;;;12.73;82.14
64872;BME280;51351;51.450;6.614;2023-11-19T09:24:15;100842.06;;;12.88;83.00
64872;BME280;51351;51.450;6.614;2023-11-19T09:26:41;100835.84;;;12.89;80.01
64872;BME280;51351;51.450;6.614;2023-11-19T09:29:07;100841.75;;;12.91;81.48
64872;BME280;51351;51.450;6.614;2023-11-19T09:31:33;100838.94;;;12.85;79.40
64872;BME280;51351;51.450;6.614;2023-11-19T09:33:58;100845.22;;;12.92;80.17
64872;BME280;51351;51.450;6.614;2023-11-19T09:36:24;100846.72;;;12.94;79.48
64872;BME280;51351;51.450;6.614;2023-11-19T09:38:49;100839.94;;;13.01;80.64
64872;BME280;51351;51.450;6.614;2023-11-19T09:41:15;100853.31;;;12.98;80.30
64872;BME280;51351;51.450;6.614;2023-11-19T09:43:41;100841.88;;;12.99;80.58
64872;BME280;51351;51.450;6.614;2023-11-19T09:46:09;100836.72;;;13.07;80.52
64872;BME280;51351;51.450;6.614;2023-11-19T09:48:37;100835.44;;;13.11;80.36
64872;BME280;51351;51.450;6.614;2023-11-19T09:51:06;100834.38;;;13.04;79.12
64872;BME280;51351;51.450;6.614;2023-11-19T09:53:33;100846.31;;;13.16;79.99
64872;BME280;51351;51.450;6.614;2023-11-19T09:56:00;100840.81;;;13.27;79.00
64872;BME280;51351;51.450;6.614;2023-11-19T09:58:26;100833.63;;;13.29;78.72
64872;BME280;51351;51.450;6.614;2023-11-19T10:00:51;100838.78;;;13.21;78.55
64872;BME280;51351;51.450;6.614;2023-11-19T10:03:21;100840.63;;;13.21;79.24
64872;BME280;51351;51.450;6.614;2023-11-19T10:05:48;100837.31;;;13.19;78.75
64872;BME280;51351;51.450;6.614;2023-11-19T10:08:14;100830.13;;;13.21;78.97
64872;BME280;51351;51.450;6.614;2023-11-19T10:10:39;100835.38;;;13.21;78.83
64872;BME280;51351;51.450;6.614;2023-11-19T10:13:05;100834.84;;;13.17;78.31
64872;BME280;51351;51.450;6.614;2023-11-19T10:15:33;100827.25;;;13.14;77.62
64872;BME280;51351;51.450;6.614;2023-11-19T10:18:00;100820.06;;;13.16;77.42
64872;BME280;51351;51.450;6.614;2023-11-19T10:20:26;100826.50;;;13.22;78.77
64872;BME280;51351;51.450;6.614;2023-11-19T10:22:55;100827.84;;;13.26;77.93
64872;BME280;51351;51.450;6.614;2023-11-19T10:25:28;100825.34;;;13.42;77.08
64872;BME280;51351;51.450;6.614;2023-11-19T10:27:55;100825.16;;;13.61;77.21
64872;BME280;51351;51.450;6.614;2023-11-19T10:30:22;100814.88;;;13.67;75.13
64872;BME280;51351;51.450;6.614;2023-11-19T10:33:10;100828.25;;;13.82;74.68
64872;BME280;51351;51.450;6.614;2023-11-19T10:35:56;100830.81;;;13.99;75.21
64872;BME280;51351;51.450;6.614;2023-11-19T10:38:27;100826.75;;;14.13;74.99
64872;BME280;51351;51.450;6.614;2023-11-19T10:40:54;100829.16;;;14.24;74.60
64872;BME280;51351;51.450;6.614;2023-11-19T10:43:21;100819.34;;;14.34;74.87
64872;BME280;51351;51.450;6.614;2023-11-19T10:45:48;100820.84;;;14.44;72.98
64872;BME280;51351;51.450;6.614;2023-11-19T10:48:14;100818.56;;;14.50;73.35
64872;BME280;51351;51.450;6.614;2023-11-19T10:50:42;100819.50;;;14.32;71.13
64872;BME280;51351;51.450;6.614;2023-11-19T10:53:09;100810.53;;;14.17;71.48
64872;BME280;51351;51.450;6.614;2023-11-19T10:55:38;100819.44;;;14.24;72.50
64872;BME280;51351;51.450;6.614;2023-11-19T10:58:06;100816.88;;;14.40;72.76
64872;BME280;51351;51.450;6.614;2023-11-19T11:00:44;100810.84;;;14.48;71.54
64872;BME280;51351;51.450;6.614;2023-11-19T11:03:25;100803.47;;;14.60;69.00
64872;BME280;51351;51.450;6.614;2023-11-19T11:05:53;100809.56;;;14.76;70.54
64872;BME280;51351;51.450;6.614;2023-11-19T11:08:19;100814.22;;;14.90;69.31
64872;BME280;51351;51.450;6.614;2023-11-19T11:10:51;100818.50;;;14.91;67.95
64872;BME280;51351;51.450;6.614;2023-11-19T11:13:18;100804.19;;;14.94;69.71
64872;BME280;51351;51.450;6.614;2023-11-19T11:15:44;100796.78;;;14.81;68.05
64872;BME280;51351;51.450;6.614;2023-11-19T11:18:12;100798.13;;;14.93;69.43
64872;BME280;51351;51.450;6.614;2023-11-19T11:20:38;100794.63;;;14.77;68.44
64872;BME280;51351;51.450;6.614;2023-11-19T11:28:18;100803.47;;;14.68;68.66
64872;BME280;51351;51.450;6.614;2023-11-19T11:36:30;100782.13;;;14.71;68.46
64872;BME280;51351;51.450;6.614;2023-11-19T11:38:58;100787.03;;;14.58;68.34
64872;BME280;51351;51.450;6.614;2023-11-19T11:41:33;100784.56;;;14.56;69.21
64872;BME280;51351;51.450;6.614;2023-11-19T11:43:58;100777.66;;;14.55;68.68
64872;BME280;51351;51.450;6.614;2023-11-19T11:49:04;100775.69;;;14.49;68.83
64872;BME280;51351;51.450;6.614;2023-11-19T11:54:30;100775.19;;;14.54;68.29
64872;BME280;51351;51.450;6.614;2023-11-19T11:57:13;100772.56;;;14.54;68.47
64872;BME280;51351;51.450;6.614;2023-11-19T12:02:16;100763.22;;;14.51;68.15
64872;BME280;51351;51.450;6.614;2023-11-19T12:04:43;100764.16;;;14.42;68.00
64872;BME280;51351;51.450;6.614;2023-11-19T12:07:13;100776.81;;;14.38;67.80
64872;BME280;51351;51.450;6.614;2023-11-19T12:09:41;100777.94;;;14.28;67.47
64872;BME280;51351;51.450;6.614;2023-11-19T12:20:05;100743.59;;;14.29;67.36
64872;BME280;51351;51.450;6.614;2023-11-19T12:22:38;100751.13;;;14.24;67.68
64872;BME280;51351;51.450;6.614;2023-11-19T12:25:05;100749.28;;;14.17;68.52
64872;BME280;51351;51.450;6.614;2023-11-19T12:27:32;100751.03;;;14.00;69.46
64872;BME280;51351;51.450;6.614;2023-11-19T12:29:59;100756.38;;;13.83;70.98
64872;BME280;51351;51.450;6.614;2023-11-19T12:32:25;100746.91;;;13.64;72.04
64872;BME280;51351;51.450;6.614;2023-11-19T12:34:50;100759.50;;;13.53;71.90
64872;BME280;51351;51.450;6.614;2023-11-19T12:37:16;100749.72;;;13.37;72.74
64872;BME280;51351;51.450;6.614;2023-11-19T12:39:42;100754.59;;;13.32;73.26
64872;BME280;51351;51.450;6.614;2023-11-19T12:42:08;100752.94;;;13.31;73.80
64872;BME280;51351;51.450;6.614;2023-11-19T12:44:33;100756.91;;;13.35;73.80
64872;BME280;51351;51.450;6.614;2023-11-19T12:47:06;100756.25;;;13.33;73.37
64872;BME280;51351;51.450;6.614;2023-11-19T12:49:33;100748.38;;;13.33;73.34
64872;BME280;51351;51.450;6.614;2023-11-19T12:51:58;100756.88;;;13.27;73.46
64872;BME280;51351;51.450;6.614;2023-11-19T12:54:34;100758.47;;;13.20;73.84
64872;BME280;51351;51.450;6.614;2023-11-19T12:57:01;100761.09;;;13.20;74.51
64872;BME280;51351;51.450;6.614;2023-11-19T12:59:26;100763.25;;;13.25;74.86
64872;BME280;51351;51.450;6.614;2023-11-19T13:04:21;100752.88;;;13.41;74.58
64872;BME280;51351;51.450;6.614;2023-11-19T13:06:47;100757.47;;;13.47;74.43
64872;BME280;51351;51.450;6.614;2023-11-19T13:09:42;100755.00;;;13.45;74.54
64872;BME280;51351;51.450;6.614;2023-11-19T13:12:15;100759.53;;;13.35;74.92
64872;BME280;51351;51.450;6.614;2023-11-19T13:14:41;100743.06;;;13.25;75.22
64872;BME280;51351;51.450;6.614;2023-11-19T13:17:13;100760.25;;;13.20;75.42
64872;BME280;51351;51.450;6.614;2023-11-19T13:19:38;100764.13;;;13.08;75.27
64872;BME280;51351;51.450;6.614;2023-11-19T13:22:04;100761.69;;;12.97;76.35
64872;BME280;51351;51.450;6.614;2023-11-19T13:24:29;100759.06;;;12.97;76.48